sensor_id;sensor_type;location;lat;lon;timestamp;pressure;altitude;pressure_sealevel;temperature
15607;BMP180;7865;50.918;4.510;2022-12-10T00:02:28;100279.00;;;-1.00
15607;BMP180;7865;50.918;4.510;2022-12-10T00:07:31;100284.00;;;-1.00
15607;BMP180;7865;50.918;4.510;2022-12-10T00:12:33;100284.00;;;-1.00
15607;BMP180;7865;50.918;4.510;2022-12-10T00:17:35;100286.00;;;-0.90
15607;BMP180;7865;50.918;4.510;2022-12-10T00:22:37;100283.00;;;-1.00
15607;BMP180;7865;50.918;4.510;2022-12-10T00:27:39;100278.00;;;-0.90
15607;BMP180;7865;50.918;4.510;2022-12-10T00:32:40;100281.00;;;-0.90
15607;BMP180;7865;50.918;4.510;2022-12-10T00:37:42;100271.00;;;-0.90
15607;BMP180;7865;50.918;4.510;2022-12-10T00:42:44;100282.00;;;-1.00
15607;BMP180;7865;50.918;4.510;2022-12-10T00:47:46;100280.00;;;-0.90
15607;BMP180;7865;50.918;4.510;2022-12-10T00:52:48;100273.00;;;-1.00
15607;BMP180;7865;50.918;4.510;2022-12-10T00:57:50;100277.00;;;-1.00
15607;BMP180;7865;50.918;4.510;2022-12-10T01:02:53;100273.00;;;-0.90
15607;BMP180;7865;50.918;4.510;2022-12-10T01:07:55;100295.00;;;-0.90
15607;BMP180;7865;50.918;4.510;2022-12-10T01:12:57;100304.00;;;-0.90
15607;BMP180;7865;50.918;4.510;2022-12-10T01:17:58;100298.00;;;-0.80
15607;BMP180;7865;50.918;4.510;2022-12-10T01:23:00;100289.00;;;-0.80
15607;BMP180;7865;50.918;4.510;2022-12-10T01:28:02;100291.00;;;-0.90
15607;BMP180;7865;50.918;4.510;2022-12-10T01:33:04;100294.00;;;-0.90
15607;BMP180;7865;50.918;4.510;2022-12-10T01:38:08;100293.00;;;-1.00
15607;BMP180;7865;50.918;4.510;2022-12-10T01:43:13;100299.00;;;-1.00
15607;BMP180;7865;50.918;4.510;2022-12-10T01:48:16;100319.00;;;-1.00
15607;BMP180;7865;50.918;4.510;2022-12-10T01:53:18;100311.00;;;-1.00
15607;BMP180;7865;50.918;4.510;2022-12-10T01:58:20;100310.00;;;-1.00
15607;BMP180;7865;50.918;4.510;2022-12-10T02:03:33;100316.00;;;-1.00
15607;BMP180;7865;50.918;4.510;2022-12-10T02:08:56;100324.00;;;-1.00
15607;BMP180;7865;50.918;4.510;2022-12-10T02:14:08;100322.00;;;-1.00
15607;BMP180;7865;50.918;4.510;2022-12-10T02:24:32;100324.00;;;-1.00
15607;BMP180;7865;50.918;4.510;2022-12-10T02:29:36;100325.00;;;-1.00
15607;BMP180;7865;50.918;4.510;2022-12-10T02:34:47;100315.00;;;-1.00
15607;BMP180;7865;50.918;4.510;2022-12-10T02:39:53;100341.00;;;-1.00
15607;BMP180;7865;50.918;4.510;2022-12-10T02:44:57;100325.00;;;-1.10
15607;BMP180;7865;50.918;4.510;2022-12-10T02:50:00;100324.00;;;-1.10
15607;BMP180;7865;50.918;4.510;2022-12-10T02:55:03;100323.00;;;-1.10
15607;BMP180;7865;50.918;4.510;2022-12-10T03:00:18;100324.00;;;-1.10
15607;BMP180;7865;50.918;4.510;2022-12-10T03:06:02;100326.00;;;-1.10
15607;BMP180;7865;50.918;4.510;2022-12-10T03:11:15;100321.00;;;-1.10
15607;BMP180;7865;50.918;4.510;2022-12-10T03:16:18;100325.00;;;-1.10
15607;BMP180;7865;50.918;4.510;2022-12-10T03:21:22;100331.00;;;-1.10
15607;BMP180;7865;50.918;4.510;2022-12-10T03:26:27;100330.00;;;-1.00
15607;BMP180;7865;50.918;4.510;2022-12-10T03:31:30;100334.00;;;-1.00
15607;BMP180;7865;50.918;4.510;2022-12-10T03:36:33;100335.00;;;-1.00
15607;BMP180;7865;50.918;4.510;2022-12-10T03:41:35;100325.00;;;-1.00
15607;BMP180;7865;50.918;4.510;2022-12-10T03:46:37;100330.00;;;-1.00
15607;BMP180;7865;50.918;4.510;2022-12-10T03:51:39;100343.00;;;-1.00
15607;BMP180;7865;50.918;4.510;2022-12-10T03:56:41;100339.00;;;-0.90
15607;BMP180;7865;50.918;4.510;2022-12-10T04:01:42;100325.00;;;-0.90
15607;BMP180;7865;50.918;4.510;2022-12-10T04:06:44;100319.00;;;-0.90
15607;BMP180;7865;50.918;4.510;2022-12-10T04:11:46;100331.00;;;-0.90
15607;BMP180;7865;50.918;4.510;2022-12-10T04:16:48;100319.00;;;-1.00
15607;BMP180;7865;50.918;4.510;2022-12-10T04:21:51;100335.00;;;-1.00
15607;BMP180;7865;50.918;4.510;2022-12-10T04:27:18;100340.00;;;-1.00
15607;BMP180;7865;50.918;4.510;2022-12-10T04:32:23;100335.00;;;-0.90
15607;BMP180;7865;50.918;4.510;2022-12-10T04:37:26;100345.00;;;-0.90
15607;BMP180;7865;50.918;4.510;2022-12-10T04:42:28;100354.00;;;-0.90
15607;BMP180;7865;50.918;4.510;2022-12-10T04:47:30;100355.00;;;-0.90
15607;BMP180;7865;50.918;4.510;2022-12-10T04:52:32;100354.00;;;-0.90
15607;BMP180;7865;50.918;4.510;2022-12-10T04:57:34;100350.00;;;-0.90
15607;BMP180;7865;50.918;4.510;2022-12-10T05:02:36;100343.00;;;-1.00
15607;BMP180;7865;50.918;4.510;2022-12-10T05:07:38;100342.00;;;-1.00
15607;BMP180;7865;50.918;4.510;2022-12-10T05:12:39;100348.00;;;-1.00
15607;BMP180;7865;50.918;4.510;2022-12-10T05:17:41;100350.00;;;-1.00
15607;BMP180;7865;50.918;4.510;2022-12-10T05:22:43;100357.00;;;-0.90
15607;BMP180;7865;50.918;4.510;2022-12-10T05:28:03;100366.00;;;-0.90
15607;BMP180;7865;50.918;4.510;2022-12-10T05:33:05;100357.00;;;-1.00
15607;BMP180;7865;50.918;4.510;2022-12-10T05:38:07;100352.00;;;-0.90
15607;BMP180;7865;50.918;4.510;2022-12-10T05:43:09;100357.00;;;-1.00
15607;BMP180;7865;50.918;4.510;2022-12-10T05:48:14;100350.00;;;-1.00
15607;BMP180;7865;50.918;4.510;2022-12-10T05:53:17;100358.00;;;-1.00
15607;BMP180;7865;50.918;4.510;2022-12-10T05:58:19;100354.00;;;-1.00
15607;BMP180;7865;50.918;4.510;2022-12-10T06:03:21;100361.00;;;-1.00
15607;BMP180;7865;50.918;4.510;2022-12-10T06:08:23;100361.00;;;-1.00
15607;BMP180;7865;50.918;4.510;2022-12-10T06:13:25;100374.00;;;-1.00
15607;BMP180;7865;50.918;4.510;2022-12-10T06:18:27;100367.00;;;-1.00
15607;BMP180;7865;50.918;4.510;2022-12-10T06:23:29;100373.00;;;-1.00
15607;BMP180;7865;50.918;4.510;2022-12-10T06:28:31;100374.00;;;-1.00
15607;BMP180;7865;50.918;4.510;2022-12-10T06:33:33;100381.00;;;-1.00
15607;BMP180;7865;50.918;4.510;2022-12-10T06:38:35;100372.00;;;-1.00
15607;BMP180;7865;50.918;4.510;2022-12-10T06:43:38;100376.00;;;-1.00
15607;BMP180;7865;50.918;4.510;2022-12-10T06:48:41;100385.00;;;-0.80
15607;BMP180;7865;50.918;4.510;2022-12-10T06:53:43;100381.00;;;-0.70
15607;BMP180;7865;50.918;4.510;2022-12-10T06:58:46;100383.00;;;-0.70
15607;BMP180;7865;50.918;4.510;2022-12-10T07:03:50;100383.00;;;-0.70
15607;BMP180;7865;50.918;4.510;2022-12-10T07:08:52;100393.00;;;-0.80
15607;BMP180;7865;50.918;4.510;2022-12-10T07:13:54;100394.00;;;-0.80
15607;BMP180;7865;50.918;4.510;2022-12-10T07:18:57;100392.00;;;-0.70
15607;BMP180;7865;50.918;4.510;2022-12-10T07:24:06;100397.00;;;-0.70
15607;BMP180;7865;50.918;4.510;2022-12-10T07:29:16;100407.00;;;-0.80
15607;BMP180;7865;50.918;4.510;2022-12-10T07:34:19;100428.00;;;-0.90
15607;BMP180;7865;50.918;4.510;2022-12-10T07:39:21;100445.00;;;-0.90
15607;BMP180;7865;50.918;4.510;2022-12-10T07:44:24;100422.00;;;-1.00
15607;BMP180;7865;50.918;4.510;2022-12-10T07:49:28;100426.00;;;-1.00
15607;BMP180;7865;50.918;4.510;2022-12-10T07:54:30;100440.00;;;-1.00
15607;BMP180;7865;50.918;4.510;2022-12-10T07:59:32;100440.00;;;-1.00
15607;BMP180;7865;50.918;4.510;2022-12-10T08:04:34;100446.00;;;-0.90
15607;BMP180;7865;50.918;4.510;2022-12-10T08:09:36;100450.00;;;-0.90
15607;BMP180;7865;50.918;4.510;2022-12-10T08:14:38;100452.00;;;-0.90
15607;BMP180;7865;50.918;4.510;2022-12-10T08:19:40;100463.00;;;-0.90
15607;BMP180;7865;50.918;4.510;2022-12-10T08:24:41;100464.00;;;-0.80
15607;BMP180;7865;50.918;4.510;2022-12-10T08:29:43;100464.00;;;-0.80
15607;BMP180;7865;50.918;4.510;2022-12-10T08:34:45;100482.00;;;-0.80
15607;BMP180;7865;50.918;4.510;2022-12-10T08:39:47;100480.00;;;-0.70
15607;BMP180;7865;50.918;4.510;2022-12-10T08:44:49;100486.00;;;-0.70
15607;BMP180;7865;50.918;4.510;2022-12-10T08:49:52;100479.00;;;-0.70
15607;BMP180;7865;50.918;4.510;2022-12-10T08:54:54;100480.00;;;-0.60
15607;BMP180;7865;50.918;4.510;2022-12-10T08:59:56;100475.00;;;-0.50
15607;BMP180;7865;50.918;4.510;2022-12-10T09:04:58;100483.00;;;-0.40
15607;BMP180;7865;50.918;4.510;2022-12-10T09:09:59;100482.00;;;-0.30
15607;BMP180;7865;50.918;4.510;2022-12-10T09:15:02;100497.00;;;-0.30
15607;BMP180;7865;50.918;4.510;2022-12-10T09:20:04;100496.00;;;-0.40
15607;BMP180;7865;50.918;4.510;2022-12-10T09:25:08;100501.00;;;-0.30
15607;BMP180;7865;50.918;4.510;2022-12-10T09:30:13;100508.00;;;-0.40
15607;BMP180;7865;50.918;4.510;2022-12-10T09:35:15;100505.00;;;-0.40
15607;BMP180;7865;50.918;4.510;2022-12-10T09:40:32;100502.00;;;-0.30
15607;BMP180;7865;50.918;4.510;2022-12-10T09:45:50;100511.00;;;-0.20
15607;BMP180;7865;50.918;4.510;2022-12-10T09:51:17;100521.00;;;-0.10
15607;BMP180;7865;50.918;4.510;2022-12-10T09:56:23;100516.00;;;-0.10
15607;BMP180;7865;50.918;4.510;2022-12-10T10:01:29;100519.00;;;0.10
15607;BMP180;7865;50.918;4.510;2022-12-10T10:06:33;100526.00;;;0.30
15607;BMP180;7865;50.918;4.510;2022-12-10T10:11:35;100527.00;;;0.20
15607;BMP180;7865;50.918;4.510;2022-12-10T10:16:50;100526.00;;;0.10
15607;BMP180;7865;50.918;4.510;2022-12-10T10:21:54;100535.00;;;-0.10
15607;BMP180;7865;50.918;4.510;2022-12-10T10:26:58;100522.00;;;0.00
15607;BMP180;7865;50.918;4.510;2022-12-10T10:32:13;100525.00;;;0.20
15607;BMP180;7865;50.918;4.510;2022-12-10T10:37:26;100515.00;;;0.40
15607;BMP180;7865;50.918;4.510;2022-12-10T10:42:36;100513.00;;;0.60
15607;BMP180;7865;50.918;4.510;2022-12-10T10:47:39;100528.00;;;0.60
15607;BMP180;7865;50.918;4.510;2022-12-10T10:52:41;100527.00;;;0.70
15607;BMP180;7865;50.918;4.510;2022-12-10T10:57:43;100534.00;;;0.60
15607;BMP180;7865;50.918;4.510;2022-12-10T11:02:45;100529.00;;;0.60
15607;BMP180;7865;50.918;4.510;2022-12-10T11:07:47;100526.00;;;0.70
15607;BMP180;7865;50.918;4.510;2022-12-10T11:18:24;100511.00;;;1.40
15607;BMP180;7865;50.918;4.510;2022-12-10T11:23:28;100500.00;;;1.30
15607;BMP180;7865;50.918;4.510;2022-12-10T11:28:41;100494.00;;;1.30
15607;BMP180;7865;50.918;4.510;2022-12-10T11:34:06;100505.00;;;1.30
15607;BMP180;7865;50.918;4.510;2022-12-10T11:44:42;100499.00;;;1.50
15607;BMP180;7865;50.918;4.510;2022-12-10T12:00:23;100505.00;;;1.60
15607;BMP180;7865;50.918;4.510;2022-12-10T12:16:33;100499.00;;;1.60
15607;BMP180;7865;50.918;4.510;2022-12-10T12:21:37;100500.00;;;1.80
15607;BMP180;7865;50.918;4.510;2022-12-10T12:32:21;100496.00;;;1.90
15607;BMP180;7865;50.918;4.510;2022-12-10T12:37:37;100502.00;;;1.80
15607;BMP180;7865;50.918;4.510;2022-12-10T12:43:01;100504.00;;;1.90
15607;BMP180;7865;50.918;4.510;2022-12-10T12:53:18;100514.00;;;1.80
15607;BMP180;7865;50.918;4.510;2022-12-10T12:58:46;100518.00;;;1.80
15607;BMP180;7865;50.918;4.510;2022-12-10T13:03:50;100515.00;;;1.70
15607;BMP180;7865;50.918;4.510;2022-12-10T13:29:59;100519.00;;;2.10
15607;BMP180;7865;50.918;4.510;2022-12-10T13:55:38;100526.00;;;2.00
15607;BMP180;7865;50.918;4.510;2022-12-10T14:01:30;100532.00;;;1.80
15607;BMP180;7865;50.918;4.510;2022-12-10T14:06:38;100553.00;;;1.70
15607;BMP180;7865;50.918;4.510;2022-12-10T14:12:00;100556.00;;;1.50
15607;BMP180;7865;50.918;4.510;2022-12-10T14:17:06;100568.00;;;1.50
15607;BMP180;7865;50.918;4.510;2022-12-10T14:22:15;100563.00;;;1.50
15607;BMP180;7865;50.918;4.510;2022-12-10T14:27:23;100570.00;;;1.40
15607;BMP180;7865;50.918;4.510;2022-12-10T14:32:32;100571.00;;;1.40
15607;BMP180;7865;50.918;4.510;2022-12-10T14:37:36;100574.00;;;1.40
15607;BMP180;7865;50.918;4.510;2022-12-10T14:42:40;100577.00;;;1.30
15607;BMP180;7865;50.918;4.510;2022-12-10T14:47:42;100592.00;;;1.20
15607;BMP180;7865;50.918;4.510;2022-12-10T14:52:52;100583.00;;;1.20
15607;BMP180;7865;50.918;4.510;2022-12-10T14:57:57;100590.00;;;1.20
15607;BMP180;7865;50.918;4.510;2022-12-10T15:03:07;100597.00;;;1.20
15607;BMP180;7865;50.918;4.510;2022-12-10T15:08:16;100602.00;;;1.10
15607;BMP180;7865;50.918;4.510;2022-12-10T15:13:44;100595.00;;;1.10
15607;BMP180;7865;50.918;4.510;2022-12-10T15:18:44;100591.00;;;1.10
15607;BMP180;7865;50.918;4.510;2022-12-10T15:23:47;100597.00;;;1.10
15607;BMP180;7865;50.918;4.510;2022-12-10T15:28:50;100593.00;;;1.00
15607;BMP180;7865;50.918;4.510;2022-12-10T15:33:53;100596.00;;;1.00
15607;BMP180;7865;50.918;4.510;2022-12-10T15:38:55;100592.00;;;1.00
15607;BMP180;7865;50.918;4.510;2022-12-10T15:44:04;100587.00;;;1.00
15607;BMP180;7865;50.918;4.510;2022-12-10T15:49:07;100581.00;;;1.00
15607;BMP180;7865;50.918;4.510;2022-12-10T15:59:34;100590.00;;;1.00
15607;BMP180;7865;50.918;4.510;2022-12-10T16:04:36;100589.00;;;1.00
15607;BMP180;7865;50.918;4.510;2022-12-10T16:09:38;100591.00;;;1.00
15607;BMP180;7865;50.918;4.510;2022-12-10T16:14:49;100580.00;;;1.00
15607;BMP180;7865;50.918;4.510;2022-12-10T16:20:30;100593.00;;;1.10
15607;BMP180;7865;50.918;4.510;2022-12-10T16:25:33;100593.00;;;1.00
15607;BMP180;7865;50.918;4.510;2022-12-10T16:30:40;100591.00;;;1.10
15607;BMP180;7865;50.918;4.510;2022-12-10T16:35:50;100595.00;;;1.10
15607;BMP180;7865;50.918;4.510;2022-12-10T16:40:52;100597.00;;;1.10
15607;BMP180;7865;50.918;4.510;2022-12-10T16:45:55;100612.00;;;1.10
15607;BMP180;7865;50.918;4.510;2022-12-10T16:50:57;100614.00;;;1.10
15607;BMP180;7865;50.918;4.510;2022-12-10T16:56:12;100615.00;;;1.10
15607;BMP180;7865;50.918;4.510;2022-12-10T17:01:26;100605.00;;;1.10
15607;BMP180;7865;50.918;4.510;2022-12-10T17:06:32;100600.00;;;1.00
15607;BMP180;7865;50.918;4.510;2022-12-10T17:11:38;100610.00;;;1.00
15607;BMP180;7865;50.918;4.510;2022-12-10T17:16:47;100603.00;;;1.00
15607;BMP180;7865;50.918;4.510;2022-12-10T17:21:50;100614.00;;;1.00
15607;BMP180;7865;50.918;4.510;2022-12-10T17:26:53;100603.00;;;1.00
15607;BMP180;7865;50.918;4.510;2022-12-10T17:31:58;100606.00;;;0.90
15607;BMP180;7865;50.918;4.510;2022-12-10T17:37:00;100601.00;;;0.90
15607;BMP180;7865;50.918;4.510;2022-12-10T17:42:02;100610.00;;;0.90
15607;BMP180;7865;50.918;4.510;2022-12-10T17:47:30;100612.00;;;0.90
15607;BMP180;7865;50.918;4.510;2022-12-10T17:52:33;100602.00;;;0.90
15607;BMP180;7865;50.918;4.510;2022-12-10T17:57:35;100608.00;;;0.90
15607;BMP180;7865;50.918;4.510;2022-12-10T18:02:37;100608.00;;;0.90
15607;BMP180;7865;50.918;4.510;2022-12-10T18:07:39;100595.00;;;1.00
15607;BMP180;7865;50.918;4.510;2022-12-10T18:12:41;100608.00;;;1.00
15607;BMP180;7865;50.918;4.510;2022-12-10T18:17:43;100601.00;;;1.10
15607;BMP180;7865;50.918;4.510;2022-12-10T18:22:47;100610.00;;;1.10
15607;BMP180;7865;50.918;4.510;2022-12-10T18:27:49;100600.00;;;1.10
15607;BMP180;7865;50.918;4.510;2022-12-10T18:32:52;100599.00;;;1.10
15607;BMP180;7865;50.918;4.510;2022-12-10T18:37:54;100603.00;;;1.10
15607;BMP180;7865;50.918;4.510;2022-12-10T18:42:55;100595.00;;;1.20
15607;BMP180;7865;50.918;4.510;2022-12-10T18:47:57;100598.00;;;1.20
15607;BMP180;7865;50.918;4.510;2022-12-10T18:52:59;100597.00;;;1.20
15607;BMP180;7865;50.918;4.510;2022-12-10T18:58:01;100601.00;;;1.20
15607;BMP180;7865;50.918;4.510;2022-12-10T19:03:08;100598.00;;;1.30
15607;BMP180;7865;50.918;4.510;2022-12-10T19:08:11;100591.00;;;1.30
15607;BMP180;7865;50.918;4.510;2022-12-10T19:13:14;100581.00;;;1.30
15607;BMP180;7865;50.918;4.510;2022-12-10T19:18:16;100591.00;;;1.30
15607;BMP180;7865;50.918;4.510;2022-12-10T19:23:18;100590.00;;;1.30
15607;BMP180;7865;50.918;4.510;2022-12-10T19:28:20;100586.00;;;1.30
15607;BMP180;7865;50.918;4.510;2022-12-10T19:33:22;100588.00;;;1.30
15607;BMP180;7865;50.918;4.510;2022-12-10T19:38:24;100581.00;;;1.30
15607;BMP180;7865;50.918;4.510;2022-12-10T19:43:26;100589.00;;;1.30
15607;BMP180;7865;50.918;4.510;2022-12-10T19:48:28;100588.00;;;1.30
15607;BMP180;7865;50.918;4.510;2022-12-10T19:53:36;100579.00;;;1.40
15607;BMP180;7865;50.918;4.510;2022-12-10T19:58:39;100594.00;;;1.40
15607;BMP180;7865;50.918;4.510;2022-12-10T20:03:41;100587.00;;;1.40
15607;BMP180;7865;50.918;4.510;2022-12-10T20:08:44;100587.00;;;1.40
15607;BMP180;7865;50.918;4.510;2022-12-10T20:13:46;100598.00;;;1.40
15607;BMP180;7865;50.918;4.510;2022-12-10T20:18:49;100596.00;;;1.40
15607;BMP180;7865;50.918;4.510;2022-12-10T20:23:51;100601.00;;;1.40
15607;BMP180;7865;50.918;4.510;2022-12-10T20:28:53;100595.00;;;1.40
15607;BMP180;7865;50.918;4.510;2022-12-10T20:33:55;100598.00;;;1.40
15607;BMP180;7865;50.918;4.510;2022-12-10T20:38:57;100601.00;;;1.50
15607;BMP180;7865;50.918;4.510;2022-12-10T20:43:59;100601.00;;;1.50
15607;BMP180;7865;50.918;4.510;2022-12-10T20:49:01;100589.00;;;1.50
15607;BMP180;7865;50.918;4.510;2022-12-10T20:54:03;100596.00;;;1.50
15607;BMP180;7865;50.918;4.510;2022-12-10T20:59:06;100600.00;;;1.50
15607;BMP180;7865;50.918;4.510;2022-12-10T21:04:08;100589.00;;;1.40
15607;BMP180;7865;50.918;4.510;2022-12-10T21:09:11;100588.00;;;1.50
15607;BMP180;7865;50.918;4.510;2022-12-10T21:14:13;100582.00;;;1.50
15607;BMP180;7865;50.918;4.510;2022-12-10T21:19:35;100577.00;;;1.40
15607;BMP180;7865;50.918;4.510;2022-12-10T21:24:37;100579.00;;;1.50
15607;BMP180;7865;50.918;4.510;2022-12-10T21:29:39;100590.00;;;1.40
15607;BMP180;7865;50.918;4.510;2022-12-10T21:34:41;100590.00;;;1.40
15607;BMP180;7865;50.918;4.510;2022-12-10T21:39:43;100589.00;;;1.40
15607;BMP180;7865;50.918;4.510;2022-12-10T21:44:45;100599.00;;;1.40
15607;BMP180;7865;50.918;4.510;2022-12-10T21:49:47;100595.00;;;1.40
15607;BMP180;7865;50.918;4.510;2022-12-10T21:54:49;100582.00;;;1.40
15607;BMP180;7865;50.918;4.510;2022-12-10T21:59:51;100570.00;;;1.30
15607;BMP180;7865;50.918;4.510;2022-12-10T22:04:52;100572.00;;;1.30
15607;BMP180;7865;50.918;4.510;2022-12-10T22:09:54;100569.00;;;1.30
15607;BMP180;7865;50.918;4.510;2022-12-10T22:14:57;100567.00;;;1.30
15607;BMP180;7865;50.918;4.510;2022-12-10T22:19:59;100571.00;;;1.30
15607;BMP180;7865;50.918;4.510;2022-12-10T22:25:01;100568.00;;;1.30
15607;BMP180;7865;50.918;4.510;2022-12-10T22:30:04;100568.00;;;1.30
15607;BMP180;7865;50.918;4.510;2022-12-10T22:35:07;100574.00;;;1.20
15607;BMP180;7865;50.918;4.510;2022-12-10T22:40:11;100572.00;;;1.20
15607;BMP180;7865;50.918;4.510;2022-12-10T22:45:13;100569.00;;;1.20
15607;BMP180;7865;50.918;4.510;2022-12-10T22:50:15;100571.00;;;1.20
15607;BMP180;7865;50.918;4.510;2022-12-10T22:55:17;100563.00;;;1.20
15607;BMP180;7865;50.918;4.510;2022-12-10T23:00:19;100564.00;;;1.20
15607;BMP180;7865;50.918;4.510;2022-12-10T23:05:22;100575.00;;;1.20
15607;BMP180;7865;50.918;4.510;2022-12-10T23:10:23;100571.00;;;1.20
15607;BMP180;7865;50.918;4.510;2022-12-10T23:15:26;100573.00;;;1.20
15607;BMP180;7865;50.918;4.510;2022-12-10T23:20:30;100588.00;;;1.20
15607;BMP180;7865;50.918;4.510;2022-12-10T23:25:32;100579.00;;;1.20
15607;BMP180;7865;50.918;4.510;2022-12-10T23:30:34;100583.00;;;1.20
15607;BMP180;7865;50.918;4.510;2022-12-10T23:35:40;100590.00;;;1.30
15607;BMP180;7865;50.918;4.510;2022-12-10T23:40:43;100587.00;;;1.30
15607;BMP180;7865;50.918;4.510;2022-12-10T23:45:45;100580.00;;;1.30
15607;BMP180;7865;50.918;4.510;2022-12-10T23:50:47;100574.00;;;1.30
15607;BMP180;7865;50.918;4.510;2022-12-10T23:55:49;100578.00;;;1.30
